»·PEaware :: N2070M L35-KHHR

N2070M :: L35-KHHR

FLIGHT INFORMATION

Flight Status: Arrived
Operator: Privately registered:
United States
More flights under this callsign
Pilot: Andrew M. (139)
Aircraft: CESSNA 208 CARAVAN
(C208)
More flights by this aircraft type
Origin: L35 Big Bear City
United States
Destination: KHHR Northrop/Hawthorne Mun
United States
More flights between these airports :: More routes between these airports
Route: +OKACO V386 APLES V442 PDZ PDZ270 RWY25 LOC
File this flight plan on PilotEdge
Remarks:
Altitude:
(Current/Filed)
14,000ft
Speed:
(Current/Filed)
200kts
Departed: 24-Oct-20 05:54 PM
Arrived: 24-Oct-20 06:48 PM
Distance/Time
Traveled:
76nm/0:53
Distance/Time
To Go:
Arrived

Flight Plot

Page will automatically refresh every two minutes.

Flight plan parsing failed; only flown route is shown


Map Options




Map Legend


Flown Route
Filed Route
Departure Airport
Arrival Airport
Navaid (VOR, NDB)
Fix

Horizontal Profiles

Position Reports

Time Latitude Longitude Heading Altitude Ground
Speed
24-Oct-20 17:39 34.263105 -116.847944 180 6759ft 0kts
24-Oct-20 17:40 34.263105 -116.847944 180 6759ft 0kts
24-Oct-20 17:41 34.263105 -116.847944 180 6759ft 0kts
24-Oct-20 17:42 34.263105 -116.847944 180 6759ft 0kts
24-Oct-20 17:43 34.263105 -116.847944 180 6759ft 0kts
24-Oct-20 17:44 34.263105 -116.847944 180 6759ft 0kts
24-Oct-20 17:45 34.263105 -116.847944 180 6759ft 0kts
24-Oct-20 17:46 34.263105 -116.847944 180 6759ft 0kts
24-Oct-20 17:47 34.263105 -116.847944 180 6759ft 0kts
24-Oct-20 17:48 34.263105 -116.847944 180 6759ft 0kts
24-Oct-20 17:49 34.263105 -116.847944 180 6759ft 0kts
24-Oct-20 17:50 34.263099 -116.847945 184 6759ft 0kts
24-Oct-20 17:51 34.263283 -116.846746 88 6758ft 10kts
24-Oct-20 17:52 34.263324 -116.846525 54 6758ft 0kts
24-Oct-20 17:53 34.263829 -116.848681 269 6760ft 46kts
24-Oct-20 17:54 34.263307 -116.883655 247 7323ft 126kts
24-Oct-20 17:55 34.243500 -116.864786 92 8498ft 130kts
24-Oct-20 17:56 34.245881 -116.819985 80 9595ft 133kts
24-Oct-20 17:57 34.258192 -116.776879 68 10678ft 136kts
24-Oct-20 17:58 34.264106 -116.731258 91 11675ft 141kts
24-Oct-20 17:59 34.264387 -116.681458 89 12555ft 148kts
24-Oct-20 18:00 34.264425 -116.631742 91 13578ft 149kts
24-Oct-20 18:01 34.272241 -116.581271 18 14009ft 173kts
24-Oct-20 18:02 34.318646 -116.598096 333 14021ft 182kts
24-Oct-20 18:03 34.367128 -116.617442 343 14024ft 184kts
24-Oct-20 18:04 34.399402 -116.626727 343 14023ft 184kts
24-Oct-20 18:05 34.449361 -116.640923 343 14023ft 184kts
24-Oct-20 18:06 34.497694 -116.660600 332 14019ft 183kts
24-Oct-20 18:07 34.506847 -116.714188 272 14020ft 174kts
24-Oct-20 18:08 34.512069 -116.772057 276 14027ft 174kts
24-Oct-20 18:09 34.517901 -116.830312 275 14030ft 174kts
24-Oct-20 18:10 34.523520 -116.888673 275 14005ft 175kts
24-Oct-20 18:11 34.529169 -116.947154 275 14002ft 174kts
24-Oct-20 18:12 34.534746 -117.005282 275 13995ft 173kts
24-Oct-20 18:13 34.540268 -117.063095 275 14009ft 174kts
24-Oct-20 18:14 34.545816 -117.121391 275 14002ft 173kts
24-Oct-20 18:15 34.521681 -117.165382 212 13996ft 178kts
24-Oct-20 18:16 34.476940 -117.193084 208 13521ft 184kts
24-Oct-20 18:17 34.431058 -117.220857 209 12827ft 182kts
24-Oct-20 18:18 34.386755 -117.247752 208 12132ft 175kts
24-Oct-20 18:19 34.343168 -117.274156 208 11431ft 175kts
24-Oct-20 18:20 34.299205 -117.300761 207 10743ft 180kts
24-Oct-20 18:21 34.254068 -117.328052 207 10033ft 181kts
24-Oct-20 18:22 34.208802 -117.355387 207 9342ft 181kts
24-Oct-20 18:23 34.163895 -117.382474 207 8640ft 180kts
24-Oct-20 18:24 34.119117 -117.409443 207 8040ft 175kts
24-Oct-20 18:25 34.075416 -117.435740 207 7476ft 175kts
24-Oct-20 18:26 34.031876 -117.461905 207 6888ft 175kts
24-Oct-20 18:27 33.988344 -117.488040 207 6280ft 174kts
24-Oct-20 18:28 33.946182 -117.513317 207 5999ft 164kts
24-Oct-20 18:29 33.905328 -117.538053 217 5986ft 169kts
24-Oct-20 18:30 33.922331 -117.586138 310 5137ft 180kts
24-Oct-20 18:31 33.939400 -117.639525 283 4217ft 167kts
24-Oct-20 18:32 33.947704 -117.690755 279 4003ft 147kts
24-Oct-20 18:33 33.950704 -117.738073 269 3980ft 137kts
24-Oct-20 18:34 33.950624 -117.784331 269 4015ft 146kts
24-Oct-20 18:35 33.945776 -117.834669 259 4009ft 150kts
24-Oct-20 18:36 33.944913 -117.885083 269 4009ft 152kts
24-Oct-20 18:37 33.942925 -117.935399 266 4007ft 152kts
24-Oct-20 18:38 33.940505 -117.986788 264 3676ft 162kts
24-Oct-20 18:39 33.937260 -118.037542 264 2873ft 140kts
24-Oct-20 18:40 33.934251 -118.085189 265 2711ft 143kts
24-Oct-20 18:41 33.931259 -118.132982 265 2495ft 144kts
24-Oct-20 18:42 33.929761 -118.181749 269 1826ft 145kts
24-Oct-20 18:43 33.928440 -118.228444 266 1478ft 130kts
24-Oct-20 18:44 33.926209 -118.263348 266 1175ft 89kts
24-Oct-20 18:45 33.924859 -118.292366 265 653ft 87kts
24-Oct-20 18:46 33.923477 -118.320899 267 229ft 83kts
24-Oct-20 18:47 33.922554 -118.337557 176 65ft 7kts
24-Oct-20 18:48 33.922337 -118.337532 171 66ft 4kts

Navigation Log

Ident Type
Flight plan parsing failed, navigation log unavailable